createdAt,value
2023-05-21T00:01:26.256Z,78.30
2023-05-21T00:03:50.101Z,78.30
2023-05-21T00:06:15.681Z,78.20
2023-05-21T00:08:39.028Z,78.50
2023-05-21T00:11:02.530Z,78.80
2023-05-21T00:13:25.886Z,78.60
2023-05-21T00:15:49.193Z,78.60
2023-05-21T00:18:12.569Z,78.80
2023-05-21T00:20:37.450Z,78.60
2023-05-21T00:23:08.289Z,78.60
2023-05-21T00:25:32.300Z,78.80
2023-05-21T00:28:23.541Z,78.90
2023-05-21T00:30:47.321Z,78.80
2023-05-21T00:33:13.888Z,78.90
2023-05-21T00:35:37.460Z,79.50
2023-05-21T00:38:03.095Z,80.00
2023-05-21T00:40:26.721Z,80.10
2023-05-21T00:42:50.136Z,80.20
2023-05-21T00:45:14.824Z,80.20
2023-05-21T00:47:39.255Z,80.00
2023-05-21T00:50:03.711Z,80.30
2023-05-21T00:52:27.568Z,80.50
2023-05-21T00:54:53.078Z,80.40
2023-05-21T00:57:17.649Z,80.20
2023-05-21T00:59:41.428Z,80.10
2023-05-21T01:02:06.802Z,80.20
2023-05-21T01:04:30.490Z,80.30
2023-05-21T01:06:56.203Z,80.40
2023-05-21T01:09:19.830Z,80.70
2023-05-21T01:11:47.904Z,80.60
2023-05-21T01:14:13.412Z,80.30
2023-05-21T01:16:39.303Z,80.80
2023-05-21T01:19:04.264Z,80.60
2023-05-21T01:21:29.401Z,80.80
2023-05-21T01:23:54.182Z,81.00
2023-05-21T01:26:18.469Z,80.60
2023-05-21T01:28:42.918Z,80.80
2023-05-21T01:31:43.847Z,80.80
2023-05-21T01:34:11.810Z,80.80
2023-05-21T01:37:19.146Z,81.20
2023-05-21T01:39:57.049Z,80.80
2023-05-21T01:43:16.439Z,81.70
2023-05-21T01:46:11.096Z,81.20
2023-05-21T01:48:37.812Z,81.40
2023-05-21T01:51:13.917Z,81.50
2023-05-21T01:53:40.648Z,81.60
2023-05-21T01:56:15.977Z,81.90
2023-05-21T01:58:39.675Z,81.80
2023-05-21T02:01:04.681Z,81.50
2023-05-21T02:03:43.355Z,81.70
2023-05-21T02:06:11.082Z,82.20
2023-05-21T02:08:38.563Z,82.00
2023-05-21T02:11:05.928Z,82.20
2023-05-21T02:13:32.390Z,82.00
2023-05-21T02:16:01.596Z,81.80
2023-05-21T02:18:26.393Z,82.30
2023-05-21T02:20:49.751Z,82.10
2023-05-21T02:23:13.208Z,82.30
2023-05-21T02:25:37.005Z,82.60
2023-05-21T02:28:02.516Z,82.30
2023-05-21T02:30:26.212Z,82.60
2023-05-21T02:32:50.707Z,82.30
2023-05-21T02:35:14.957Z,82.90
2023-05-21T02:37:40.397Z,83.00
2023-05-21T02:40:05.987Z,83.10
2023-05-21T02:42:30.041Z,83.70
2023-05-21T02:44:54.929Z,83.30
2023-05-21T02:47:19.721Z,83.70
2023-05-21T02:49:43.095Z,83.70
2023-05-21T02:52:07.189Z,84.10
2023-05-21T02:54:30.478Z,83.90
2023-05-21T02:56:54.200Z,83.80
2023-05-21T02:59:17.546Z,83.80
2023-05-21T03:01:44.952Z,84.00
2023-05-21T03:04:08.471Z,84.10
2023-05-21T03:06:32.222Z,84.10
2023-05-21T03:08:55.773Z,84.30
2023-05-21T03:11:22.500Z,84.00
2023-05-21T03:13:46.395Z,84.10
2023-05-21T03:16:09.897Z,84.10
2023-05-21T03:18:34.677Z,84.30
2023-05-21T03:20:59.002Z,84.40
2023-05-21T03:23:24.939Z,84.80
2023-05-21T03:25:48.619Z,84.70
2023-05-21T03:28:12.497Z,84.60
2023-05-21T03:30:40.305Z,84.70
2023-05-21T03:33:23.990Z,84.80
2023-05-21T03:35:48.689Z,84.70
2023-05-21T03:38:13.071Z,84.50
2023-05-21T03:40:36.367Z,84.60
2023-05-21T03:43:02.581Z,84.60
2023-05-21T03:46:18.532Z,84.60
2023-05-21T03:49:15.875Z,84.40
2023-05-21T03:52:33.143Z,84.40
2023-05-21T03:55:26.617Z,84.70
2023-05-21T03:57:59.303Z,84.50
2023-05-21T04:00:24.585Z,84.80
2023-05-21T04:02:48.116Z,84.90
2023-05-21T04:05:13.525Z,84.80
2023-05-21T04:07:38.992Z,84.90
2023-05-21T04:10:04.106Z,84.70
2023-05-21T04:12:28.828Z,84.80
2023-05-21T04:14:59.047Z,84.60
2023-05-21T04:17:28.532Z,84.90
2023-05-21T04:19:53.389Z,84.80
2023-05-21T04:22:16.975Z,84.60
2023-05-21T04:24:41.667Z,84.80
2023-05-21T04:27:14.117Z,84.80
2023-05-21T04:29:42.591Z,84.70
2023-05-21T04:32:07.367Z,84.30
2023-05-21T04:34:32.841Z,84.50
2023-05-21T04:36:56.923Z,84.30
2023-05-21T04:39:21.623Z,84.80
2023-05-21T04:41:47.158Z,84.70
2023-05-21T04:44:14.974Z,84.50
2023-05-21T04:46:41.796Z,84.60
2023-05-21T04:49:05.358Z,84.70
2023-05-21T04:51:28.676Z,84.70
2023-05-21T04:53:52.048Z,84.80
2023-05-21T04:56:15.716Z,84.90
2023-05-21T04:58:41.625Z,85.10
2023-05-21T05:01:05.068Z,84.80
2023-05-21T05:03:28.520Z,84.90
2023-05-21T05:05:51.876Z,84.80
2023-05-21T05:08:17.120Z,84.90
2023-05-21T05:10:40.435Z,84.50
2023-05-21T05:13:03.805Z,84.70
2023-05-21T05:15:28.642Z,84.60
2023-05-21T05:17:52.146Z,84.50
2023-05-21T05:20:15.720Z,84.70
2023-05-21T05:22:39.134Z,84.30
2023-05-21T05:25:02.442Z,84.20
2023-05-21T05:27:25.808Z,84.40
2023-05-21T05:29:49.875Z,84.20
2023-05-21T05:32:14.887Z,84.20
2023-05-21T05:34:39.333Z,84.20
2023-05-21T05:37:02.912Z,84.20
2023-05-21T05:39:26.335Z,83.90
2023-05-21T05:41:49.682Z,84.20
2023-05-21T05:44:13.410Z,84.10
2023-05-21T05:46:36.999Z,84.10
2023-05-21T05:49:01.869Z,84.30
2023-05-21T05:51:25.146Z,83.70
2023-05-21T05:53:48.448Z,83.70
2023-05-21T05:56:11.845Z,83.70
2023-05-21T05:58:35.535Z,83.30
2023-05-21T06:01:07.833Z,83.00
2023-05-21T06:03:31.602Z,83.50
2023-05-21T06:05:56.595Z,83.50
2023-05-21T06:08:20.782Z,83.10
2023-05-21T06:10:44.284Z,83.10
2023-05-21T06:13:07.919Z,83.30
2023-05-21T06:15:32.072Z,83.60
2023-05-21T06:17:55.687Z,83.00
2023-05-21T06:20:19.687Z,82.60
2023-05-21T06:22:44.514Z,83.10
2023-05-21T06:25:10.649Z,82.40
2023-05-21T06:27:34.586Z,81.90
2023-05-21T06:29:59.065Z,82.40
2023-05-21T06:32:25.894Z,82.10
2023-05-21T06:34:49.607Z,81.90
2023-05-21T06:37:20.142Z,80.90
2023-05-21T06:39:44.942Z,80.20
2023-05-21T06:42:08.252Z,79.90
2023-05-21T06:44:51.870Z,80.30
2023-05-21T06:47:27.306Z,80.20
2023-05-21T06:49:50.881Z,79.50
2023-05-21T06:52:14.270Z,80.30
2023-05-21T06:54:37.647Z,79.40
2023-05-21T06:57:02.854Z,78.50
2023-05-21T06:59:27.819Z,78.90
2023-05-21T07:01:51.179Z,79.50
2023-05-21T07:04:14.789Z,79.10
2023-05-21T07:06:39.951Z,77.20
2023-05-21T07:09:03.747Z,78.00
2023-05-21T07:11:28.983Z,78.60
2023-05-21T07:13:54.794Z,79.00
2023-05-21T07:16:18.931Z,78.00
2023-05-21T07:18:44.559Z,77.90
2023-05-21T07:21:08.031Z,78.50
2023-05-21T07:23:32.756Z,77.60
2023-05-21T07:25:56.162Z,76.40
2023-05-21T07:28:20.399Z,76.60
2023-05-21T07:30:45.180Z,77.10
2023-05-21T07:33:12.672Z,76.50
2023-05-21T07:35:36.540Z,75.40
2023-05-21T07:38:00.148Z,75.20
2023-05-21T07:40:24.202Z,74.10
2023-05-21T07:42:47.540Z,75.10
2023-05-21T07:45:13.893Z,74.80
2023-05-21T07:47:41.954Z,76.20
2023-05-21T07:50:07.619Z,74.10
2023-05-21T07:52:30.981Z,72.90
2023-05-21T07:54:54.580Z,73.20
2023-05-21T07:57:19.603Z,74.00
2023-05-21T07:59:58.522Z,72.90
2023-05-21T08:02:22.326Z,74.30
2023-05-21T08:04:47.264Z,74.70
2023-05-21T08:07:11.062Z,71.20
2023-05-21T08:09:34.375Z,72.60
2023-05-21T08:11:57.761Z,72.10
2023-05-21T08:14:21.480Z,73.70
2023-05-21T08:16:45.440Z,74.50
2023-05-21T08:19:08.841Z,73.80
2023-05-21T08:21:34.112Z,74.30
2023-05-21T08:23:59.955Z,73.10
2023-05-21T08:26:23.682Z,75.10
2023-05-21T08:28:47.532Z,73.10
2023-05-21T08:31:11.210Z,71.50
2023-05-21T08:33:38.392Z,74.90
2023-05-21T08:36:02.561Z,73.70
2023-05-21T08:38:45.212Z,74.30
2023-05-21T08:41:14.009Z,72.80
2023-05-21T08:43:40.033Z,74.60
2023-05-21T08:46:05.392Z,74.30
2023-05-21T08:48:33.361Z,74.60
2023-05-21T08:50:56.743Z,72.60
2023-05-21T08:53:28.783Z,72.90
2023-05-21T08:55:57.274Z,71.90
2023-05-21T08:58:25.778Z,69.80
2023-05-21T09:00:50.718Z,68.30
2023-05-21T09:03:15.956Z,69.80
2023-05-21T09:05:41.774Z,70.20
2023-05-21T09:08:09.087Z,70.40
2023-05-21T09:10:54.226Z,68.90
2023-05-21T09:13:22.337Z,70.50
2023-05-21T09:15:47.698Z,69.80
2023-05-21T09:18:13.519Z,71.40
2023-05-21T09:21:27.284Z,71.50
2023-05-21T09:24:06.097Z,68.90
2023-05-21T09:26:30.974Z,70.90
2023-05-21T09:29:01.536Z,71.60
2023-05-21T09:31:25.898Z,70.10
2023-05-21T09:33:49.689Z,71.90
2023-05-21T09:36:14.369Z,72.00
2023-05-21T09:38:39.442Z,70.00
2023-05-21T09:41:06.748Z,72.10
2023-05-21T09:43:33.029Z,71.10
2023-05-21T09:46:01.290Z,69.90
2023-05-21T09:48:38.479Z,70.30
2023-05-21T09:51:16.553Z,70.60
2023-05-21T09:53:45.901Z,68.60
2023-05-21T09:56:10.234Z,66.60
2023-05-21T09:58:36.145Z,64.70
2023-05-21T10:01:00.727Z,67.90
2023-05-21T10:03:26.758Z,71.30
2023-05-21T10:05:52.624Z,69.20
2023-05-21T10:08:20.011Z,70.00
2023-05-21T10:10:44.472Z,68.20
2023-05-21T10:13:10.559Z,69.90
2023-05-21T10:15:41.454Z,70.20
2023-05-21T10:18:06.257Z,70.10
2023-05-21T10:20:30.396Z,69.90
2023-05-21T10:22:54.492Z,67.90
2023-05-21T10:25:18.719Z,67.00
2023-05-21T10:27:43.201Z,70.70
2023-05-21T10:30:08.675Z,66.80
2023-05-21T10:32:35.047Z,68.00
2023-05-21T10:35:01.460Z,69.00
2023-05-21T10:37:27.548Z,67.60
2023-05-21T10:39:51.595Z,70.10
2023-05-21T10:42:22.876Z,70.80
2023-05-21T10:45:06.546Z,67.80
2023-05-21T10:47:54.711Z,68.90
2023-05-21T10:51:16.799Z,71.20
2023-05-21T10:54:16.894Z,67.60
2023-05-21T10:56:44.109Z,67.40
2023-05-21T10:59:22.987Z,70.90
2023-05-21T11:01:46.755Z,69.40
2023-05-21T11:04:14.517Z,70.20
2023-05-21T11:06:37.911Z,67.30
2023-05-21T11:09:04.886Z,68.90
2023-05-21T11:11:46.056Z,69.10
2023-05-21T11:14:43.544Z,70.60
2023-05-21T11:17:13.681Z,68.00
2023-05-21T11:19:41.068Z,67.00
2023-05-21T11:22:11.787Z,70.60
2023-05-21T11:24:38.591Z,69.00
2023-05-21T11:27:04.949Z,67.90
2023-05-21T11:29:44.703Z,67.10
2023-05-21T11:32:10.372Z,67.50
2023-05-21T11:34:41.806Z,65.10
2023-05-21T11:37:26.704Z,66.00
2023-05-21T11:39:51.113Z,68.20
2023-05-21T11:42:15.305Z,69.10
2023-05-21T11:44:42.278Z,70.60
2023-05-21T11:47:06.814Z,70.90
2023-05-21T11:49:30.276Z,66.70
2023-05-21T11:51:55.130Z,69.50
2023-05-21T11:54:19.186Z,69.10
2023-05-21T11:56:42.558Z,66.20
2023-05-21T11:59:05.801Z,66.50
2023-05-21T12:01:31.205Z,67.30
2023-05-21T12:03:54.627Z,65.10
2023-05-21T12:06:18.522Z,69.10
2023-05-21T12:08:43.384Z,65.00
2023-05-21T12:11:06.995Z,67.20
2023-05-21T12:13:30.298Z,61.50
2023-05-21T12:15:54.461Z,62.40
2023-05-21T12:18:17.792Z,65.00
2023-05-21T12:20:41.148Z,64.70
2023-05-21T12:23:04.530Z,63.00
2023-05-21T12:25:30.384Z,63.70
2023-05-21T12:27:58.321Z,64.50
2023-05-21T12:30:22.285Z,63.90
2023-05-21T12:32:45.649Z,63.00
2023-05-21T12:35:09.802Z,63.80
2023-05-21T12:37:35.492Z,65.10
2023-05-21T12:40:01.345Z,64.20
2023-05-21T12:42:31.123Z,65.40
2023-05-21T12:46:17.355Z,62.70
2023-05-21T12:48:40.959Z,64.40
2023-05-21T12:51:04.520Z,64.30
2023-05-21T12:53:38.927Z,66.20
2023-05-21T12:56:10.732Z,63.20
2023-05-21T12:58:35.266Z,63.00
2023-05-21T13:00:58.575Z,63.30
2023-05-21T13:03:25.070Z,61.60
2023-05-21T13:05:48.428Z,63.00
2023-05-21T13:08:14.085Z,63.20
2023-05-21T13:10:37.611Z,59.40
2023-05-21T13:13:01.716Z,62.90
2023-05-21T13:15:25.148Z,59.90
2023-05-21T13:17:50.156Z,62.60
2023-05-21T13:20:18.359Z,63.40
2023-05-21T13:22:43.426Z,60.20
2023-05-21T13:25:09.677Z,62.00
2023-05-21T13:27:33.079Z,60.20
2023-05-21T13:29:56.446Z,61.10
2023-05-21T13:32:19.868Z,62.60
2023-05-21T13:34:43.352Z,60.20
2023-05-21T13:37:08.334Z,58.50
2023-05-21T13:39:31.733Z,60.90
2023-05-21T13:41:55.356Z,62.30
2023-05-21T13:44:18.695Z,59.20
2023-05-21T13:46:42.273Z,59.00
2023-05-21T13:49:05.627Z,60.90
2023-05-21T13:51:38.561Z,61.00
2023-05-21T13:54:04.178Z,62.10
2023-05-21T13:56:27.511Z,59.10
2023-05-21T13:58:50.916Z,60.80
2023-05-21T14:01:14.272Z,58.20
2023-05-21T14:03:37.534Z,57.70
2023-05-21T14:06:01.071Z,60.70
2023-05-21T14:08:27.476Z,58.10
2023-05-21T14:10:52.377Z,59.60
2023-05-21T14:13:20.005Z,58.40
2023-05-21T14:15:44.223Z,58.90
2023-05-21T14:18:12.072Z,59.60
2023-05-21T14:20:35.488Z,59.70
2023-05-21T14:22:58.733Z,58.40
2023-05-21T14:25:22.155Z,60.70
2023-05-21T14:27:46.894Z,59.20
2023-05-21T14:30:11.551Z,59.00
2023-05-21T14:32:35.277Z,58.10
2023-05-21T14:35:00.493Z,60.50
2023-05-21T14:37:23.836Z,57.50
2023-05-21T14:39:47.120Z,58.30
2023-05-21T14:42:10.426Z,58.10
2023-05-21T14:44:35.051Z,58.30
2023-05-21T14:46:59.077Z,60.20
2023-05-21T14:49:22.433Z,59.30
2023-05-21T14:51:47.478Z,59.40
2023-05-21T14:54:10.840Z,59.00
2023-05-21T14:56:34.662Z,59.20
2023-05-21T14:58:58.039Z,56.40
2023-05-21T15:01:23.372Z,57.70
2023-05-21T15:03:46.773Z,57.70
2023-05-21T15:06:10.548Z,56.10
2023-05-21T15:08:33.897Z,57.10
2023-05-21T15:10:58.149Z,57.00
2023-05-21T15:13:21.693Z,57.20
2023-05-21T15:15:45.006Z,57.30
2023-05-21T15:18:09.775Z,57.60
2023-05-21T15:20:33.118Z,56.90
2023-05-21T15:23:08.783Z,57.60
2023-05-21T15:25:39.229Z,56.70
2023-05-21T15:28:02.741Z,57.20
2023-05-21T15:30:27.298Z,56.90
2023-05-21T15:32:50.619Z,56.60
2023-05-21T15:35:15.503Z,56.80
2023-05-21T15:37:38.848Z,60.20
2023-05-21T15:40:02.331Z,58.40
2023-05-21T15:42:25.640Z,59.10
2023-05-21T15:44:48.958Z,58.90
2023-05-21T15:47:12.181Z,59.10
2023-05-21T15:49:35.901Z,58.70
2023-05-21T15:52:00.840Z,58.80
2023-05-21T15:54:24.189Z,57.70
2023-05-21T15:56:47.471Z,59.40
2023-05-21T15:59:11.066Z,59.90
2023-05-21T16:01:34.600Z,60.50
2023-05-21T16:03:58.054Z,62.30
2023-05-21T16:06:21.417Z,59.50
2023-05-21T16:08:46.064Z,61.10
2023-05-21T16:11:09.355Z,62.90
2023-05-21T16:13:32.598Z,61.80
2023-05-21T16:15:55.942Z,62.00
2023-05-21T16:18:19.383Z,61.10
2023-05-21T16:20:42.595Z,61.80
2023-05-21T16:23:06.477Z,61.10
2023-05-21T16:25:31.183Z,61.10
2023-05-21T16:27:54.441Z,62.10
2023-05-21T16:30:17.884Z,61.80
2023-05-21T16:32:41.385Z,62.00
2023-05-21T16:35:06.039Z,60.80
2023-05-21T16:37:29.342Z,61.70
2023-05-21T16:39:52.710Z,61.70
2023-05-21T16:42:17.381Z,63.40
2023-05-21T16:44:40.832Z,62.80
2023-05-21T16:47:04.369Z,63.50
2023-05-21T16:49:28.911Z,61.90
2023-05-21T16:51:52.243Z,62.30
2023-05-21T16:54:15.574Z,63.30
2023-05-21T16:56:39.319Z,61.60
2023-05-21T16:59:03.964Z,62.40
2023-05-21T17:01:27.556Z,61.60
2023-05-21T17:03:51.260Z,62.80
2023-05-21T17:06:15.054Z,61.80
2023-05-21T17:08:38.342Z,63.50
2023-05-21T17:11:01.691Z,63.20
2023-05-21T17:13:25.024Z,62.50
2023-05-21T17:15:49.840Z,63.60
2023-05-21T17:18:13.154Z,65.20
2023-05-21T17:20:36.603Z,63.90
2023-05-21T17:22:59.897Z,63.40
2023-05-21T17:25:25.124Z,63.20
2023-05-21T17:27:48.575Z,65.40
2023-05-21T17:30:13.160Z,63.70
2023-05-21T17:32:37.933Z,63.90
2023-05-21T17:35:01.320Z,64.20
2023-05-21T17:37:24.635Z,64.20
2023-05-21T17:39:48.023Z,62.70
2023-05-21T17:42:11.373Z,64.20
2023-05-21T17:44:34.668Z,65.30
2023-05-21T17:46:58.046Z,64.70
2023-05-21T17:49:22.723Z,63.80
2023-05-21T17:51:46.495Z,64.30
2023-05-21T17:54:09.847Z,65.20
2023-05-21T17:56:34.327Z,65.10
2023-05-21T17:58:57.588Z,65.70
2023-05-21T18:01:22.088Z,64.50
2023-05-21T18:03:45.499Z,66.00
2023-05-21T18:06:10.184Z,65.20
2023-05-21T18:08:33.539Z,65.90
2023-05-21T18:10:57.924Z,66.60
2023-05-21T18:13:21.257Z,67.20
2023-05-21T18:15:44.588Z,67.40
2023-05-21T18:18:07.904Z,67.70
2023-05-21T18:20:31.309Z,66.70
2023-05-21T18:22:56.005Z,65.80
2023-05-21T18:25:19.324Z,66.70
2023-05-21T18:27:42.608Z,66.70
2023-05-21T18:30:08.142Z,67.30
2023-05-21T18:32:32.650Z,67.30
2023-05-21T18:34:56.547Z,67.80
2023-05-21T18:37:20.083Z,67.70
2023-05-21T18:39:44.728Z,67.90
2023-05-21T18:42:13.406Z,67.60
2023-05-21T18:44:37.504Z,67.60
2023-05-21T18:47:01.731Z,68.10
2023-05-21T18:49:25.175Z,68.20
2023-05-21T18:51:48.500Z,69.10
2023-05-21T18:54:11.745Z,69.00
2023-05-21T18:56:36.768Z,68.90
2023-05-21T18:59:00.109Z,69.00
2023-05-21T19:01:23.502Z,70.80
2023-05-21T19:03:46.871Z,70.40
2023-05-21T19:06:10.186Z,70.50
2023-05-21T19:08:33.505Z,71.10
2023-05-21T19:10:57.390Z,71.80
2023-05-21T19:13:22.115Z,75.10
2023-05-21T19:15:48.007Z,81.80
2023-05-21T19:18:11.315Z,85.00
2023-05-21T19:20:34.684Z,87.20
2023-05-21T19:22:58.179Z,88.20
2023-05-21T19:25:21.708Z,87.40
2023-05-21T19:27:58.524Z,87.80
2023-05-21T19:30:23.280Z,87.90
2023-05-21T19:32:47.958Z,87.80
2023-05-21T19:35:11.505Z,88.80
2023-05-21T19:37:34.830Z,88.80
2023-05-21T19:39:58.300Z,88.80
2023-05-21T19:42:22.117Z,89.20
2023-05-21T19:44:45.558Z,88.80
2023-05-21T19:47:10.566Z,89.20
2023-05-21T19:49:33.976Z,89.50
2023-05-21T19:51:57.300Z,89.30
2023-05-21T19:54:21.044Z,90.30
2023-05-21T19:56:44.354Z,90.70
2023-05-21T19:59:07.794Z,90.10
2023-05-21T20:01:33.278Z,88.90
2023-05-21T20:03:58.635Z,90.00
2023-05-21T20:06:22.068Z,88.70
2023-05-21T20:08:48.876Z,89.50
2023-05-21T20:11:12.873Z,90.60
2023-05-21T20:13:36.284Z,91.30
2023-05-21T20:16:07.544Z,91.60
2023-05-21T20:18:31.111Z,91.90
2023-05-21T20:21:00.368Z,92.00
2023-05-21T20:23:31.298Z,91.90
2023-05-21T20:25:54.653Z,91.60
2023-05-21T20:29:10.563Z,91.70
2023-05-21T20:31:33.980Z,92.00
2023-05-21T20:33:58.731Z,91.90
2023-05-21T20:36:27.186Z,91.50
2023-05-21T20:38:57.187Z,91.70
2023-05-21T20:41:21.799Z,91.90
2023-05-21T20:44:25.869Z,92.20
2023-05-21T20:46:52.858Z,91.40
2023-05-21T20:49:17.750Z,91.80
2023-05-21T20:51:42.481Z,92.10
2023-05-21T20:54:06.414Z,92.00
2023-05-21T20:56:41.525Z,92.20
2023-05-21T20:59:11.955Z,92.10
2023-05-21T21:01:37.938Z,92.20
2023-05-21T21:04:01.520Z,92.40
2023-05-21T21:06:31.674Z,92.40
2023-05-21T21:08:57.009Z,92.50
2023-05-21T21:11:20.329Z,92.50
2023-05-21T21:13:43.895Z,92.60
2023-05-21T21:16:09.747Z,92.60
2023-05-21T21:18:33.289Z,92.20
2023-05-21T21:20:56.765Z,92.40
2023-05-21T21:23:20.011Z,92.70
2023-05-21T21:25:45.049Z,92.90
2023-05-21T21:28:08.550Z,93.00
2023-05-21T21:30:32.249Z,93.00
2023-05-21T21:32:55.779Z,93.20
2023-05-21T21:35:19.369Z,93.20
2023-05-21T21:37:42.778Z,93.20
2023-05-21T21:40:08.246Z,93.30
2023-05-21T21:42:33.286Z,93.40
2023-05-21T21:44:56.594Z,93.30
2023-05-21T21:47:19.947Z,93.50
2023-05-21T21:49:43.602Z,93.60
2023-05-21T21:52:08.124Z,93.60
2023-05-21T21:54:31.401Z,93.60
2023-05-21T21:56:55.018Z,93.40
2023-05-21T21:59:22.598Z,93.40
2023-05-21T22:01:46.073Z,93.50
2023-05-21T22:04:09.473Z,93.00
2023-05-21T22:06:33.201Z,92.70
2023-05-21T22:08:56.548Z,92.00
2023-05-21T22:11:19.956Z,91.90
2023-05-21T22:13:44.238Z,92.10
2023-05-21T22:16:09.100Z,92.20
2023-05-21T22:18:41.090Z,92.10
2023-05-21T22:21:09.559Z,92.50
2023-05-21T22:23:33.610Z,92.40
2023-05-21T22:25:56.918Z,91.90
2023-05-21T22:28:22.383Z,92.10
2023-05-21T22:30:45.740Z,92.20
2023-05-21T22:33:11.355Z,92.10
2023-05-21T22:35:34.703Z,92.10
2023-05-21T22:37:58.716Z,92.30
2023-05-21T22:40:21.980Z,92.00
2023-05-21T22:42:47.047Z,90.70
2023-05-21T22:45:19.360Z,90.70
2023-05-21T22:47:43.012Z,91.40
2023-05-21T22:50:59.098Z,91.90
2023-05-21T22:53:50.673Z,92.20
2023-05-21T22:56:30.430Z,92.70
2023-05-21T22:59:00.228Z,92.70
2023-05-21T23:02:16.471Z,92.60
2023-05-21T23:05:11.170Z,92.80
2023-05-21T23:08:27.047Z,92.80
2023-05-21T23:11:43.312Z,92.90
2023-05-21T23:14:06.864Z,92.70
2023-05-21T23:16:32.289Z,92.90
2023-05-21T23:19:52.311Z,93.20
2023-05-21T23:22:57.617Z,93.30
2023-05-21T23:25:23.566Z,93.20
2023-05-21T23:27:52.906Z,93.50
2023-05-21T23:30:16.915Z,93.50
2023-05-21T23:32:41.332Z,93.60
2023-05-21T23:35:09.329Z,93.60
2023-05-21T23:37:34.201Z,93.60
2023-05-21T23:39:57.470Z,93.50
2023-05-21T23:42:21.670Z,93.60
2023-05-21T23:44:45.112Z,93.70
2023-05-21T23:47:12.363Z,93.70
2023-05-21T23:49:37.176Z,93.40
2023-05-21T23:52:01.525Z,93.60
2023-05-21T23:54:27.463Z,93.70
2023-05-21T23:56:55.020Z,93.60
2023-05-21T23:59:18.708Z,93.60
